• Join FlightAware (Why Join?)
  • Login
  • US Flag 
05:14AM EDT


 

Airport Tracker/Info


-or-


 

Live Flight TrackerFlight Track Log ✈ SWA303 ✈ 26-Apr-2013 ✈ KDEN - KIAD

Flight Track Log - Related Links

Times and Time Zones

All times are in EDT time to prevent confusion due to time zone crossing. See the SWA303 flight status page for this flight to view local times or setup timezone preferences in your user account.

Time Position Orientation Groundspeed Altitude Reporting Facility
EDT Latitude Longitude Course Direction KTS MPH feet Rate Location/Type
03:00PM 39.8833 -104.5500 84° East 204 235 8,000  Level Denver TRACON
03:01PM 39.8833 -104.4500 90° East 275 316 10,500 2,580 Climbing Denver TRACON
03:02PM 39.8733 -104.3769 100° East 285 328 13,100 2,640 Climbing Denver Center
03:03PM 39.8736 -104.2247 90° East 354 407 15,800 2,640 Climbing Denver Center
03:04PM 39.8725 -104.0914 91° East 373 429 18,700 2,640 Climbing Denver Center
03:05PM 39.9293 -103.8380 84° East  Level Estimated
03:05PM 39.8847 -103.9453 84° East 377 434 21,300  Level Denver Center
03:06PM 39.9006 -103.8000 82° East 398 458 23,900 2,340 Climbing Denver Center
03:07PM 39.9164 -103.6569 82° East 397 457 26,200 1,860 Climbing Denver Center
03:08PM 39.9339 -103.5033 82° East 419 482 28,200 1,860 Climbing Denver Center
03:09PM 39.9556 -103.2947 82° East 436 502 30,500 1,680 Climbing Denver Center
03:10PM 39.9722 -103.1342 82° East 444 511 31,700 1,200 Climbing Denver Center
03:11PM 39.9883 -102.9667 83° East 458 527 33,000 1,440 Climbing Denver Center
03:12PM 40.0067 -102.7983 82° East 465 535 34,700 960 Climbing Denver Center
03:13PM 40.0239 -102.6203 84° East 465 535 35,100 600 Climbing Denver Center
03:14PM 40.0240 -102.5890 84° East  Level FlightAware Approximate
03:14PM 40.0389 -102.4581 83° East 471 542 36,000  Level Denver Center
03:16PM 40.0567 -102.2689 83° East 472 543 37,000 420 Climbing Denver Center
03:17PM 40.0778 -102.0497 83° East 477 549 37,000  Level Denver Center
03:18PM 40.0919 -101.8853 84° East 478 550 37,000  Level Denver Center
03:19PM 40.1106 -101.6972 83° East 470 541 37,000  Level Denver Center
03:20PM 40.1244 -101.5319 84° East 477 549 37,000  Level Denver Center
03:21PM 40.1411 -101.3406 83° East 477 549 37,000 240 Level Denver Center
03:22PM 40.1561 -101.1753 83° East 480 552 37,600 600 Climbing Denver Center
03:23PM 40.1725 -100.9772 84° East 491 565 38,300 660 Climbing Denver Center
03:24PM 40.1867 -100.8058 84° East 496 571 39,000 300 Climbing Denver Center
03:25PM 40.2028 -100.6094 84° East 492 566 39,000  Level Denver Center
03:26PM 40.2072 -100.4125 88° East 488 562 39,000  Level Denver Center
03:27PM 40.2100 -100.2158 89° East 485 558 39,000  Level Denver Center
03:28PM 40.2131 -100.0469 89° East 487 560 39,000  Level Denver Center
03:29PM 40.2147 -99.8456 89° East 485 558 39,000  Level Denver Center
03:30PM 40.2164 -99.6692 89° East 486 559 39,000  Level Denver Center
03:31PM 40.2189 -99.4953 89° East 481 554 39,000  Level Denver Center
03:32PM 40.2200 -99.3206 89° East 481 554 39,000  Level Denver Center
03:33PM 40.2208 -99.1797 90° East 484 557 39,000  Level Denver Center
03:34PM 40.2222 -98.9703 89° East 482 555 39,000  Level Denver Center
03:35PM 40.2222 -98.8306 90° East 483 556 39,000  Level Minneapolis Center
03:36PM 40.2231 -98.6553 90° East 483 556 39,000  Level Minneapolis Center
03:37PM 40.2231 -98.4794 90° East 485 558 39,000  Level Minneapolis Center
03:38PM 40.2231 -98.3069 90° East 481 554 39,000  Level Minneapolis Center
03:39PM 40.2228 -98.1328 90° East 480 552 39,000  Level Minneapolis Center
03:40PM 40.2219 -97.9578 90° East 482 555 39,000  Level Minneapolis Center
03:41PM 40.2206 -97.7475 90° East 483 556 39,000  Level Minneapolis Center
03:42PM 40.2194 -97.5733 90° East 482 555 39,000  Level Minneapolis Center
03:43PM 40.2175 -97.3967 91° East 485 558 39,000  Level Minneapolis Center
03:44PM 40.2156 -97.2269 91° East 484 557 39,000  Level Minneapolis Center
03:45PM 40.2133 -97.0489 91° East 487 560 39,000  Level Minneapolis Center
03:46PM 40.2114 -96.8728 91° East 488 562 39,000  Level Minneapolis Center
03:47PM 40.2078 -96.6608 91° East 488 562 39,000  Level Minneapolis Center
03:48PM 40.2058 -96.4839 91° East 489 563 39,000  Level Minneapolis Center
03:49PM 40.2017 -96.3056 92° East 490 564 39,000  Level Minneapolis Center
03:50PM 40.1992 -96.1283 91° East 491 565 39,000  Level Minneapolis Center
03:52PM 40.1994 -95.9489 90° East 494 568 39,000  Level Minneapolis Center
03:53PM 40.1983 -95.7681 90° East 498 573 39,000  Level Minneapolis Center
03:54PM 40.1981 -95.5550 90° East 492 566 39,000  Level Minneapolis Center
03:55PM 40.1967 -95.4131 91° East 491 565 39,000  Level Minneapolis Center
03:56PM 40.1958 -95.1992 90° East 491 565 39,000  Level Minneapolis Center
03:57PM 40.1936 -95.0214 91° East 491 565 39,000  Level Minneapolis Center
03:58PM 40.1892 -94.8453 92° East 489 563 39,000  Level Minneapolis Center
03:59PM 40.1864 -94.6314 91° East 490 564 39,000  Level Minneapolis Center
04:00PM 40.1842 -94.4697 91° East 493 567 39,000  Level Minneapolis Center
04:01PM 40.1797 -94.3044 92° East 495 570 39,000  Level Kansas City Center
04:02PM 40.1758 -94.1014 91° East 498 573 39,000  Level Kansas City Center
04:03PM 40.1692 -93.9292 93° East 504 580 39,000  Level Kansas City Center
04:04PM 40.1650 -93.7492 92° East 501 577 39,000  Level Kansas City Center
04:05PM 40.1608 -93.5319 91° East 502 578 39,000  Level Kansas City Center
04:06PM 40.1558 -93.3511 92° East 503 579 39,000  Level Kansas City Center
04:07PM 40.1508 -93.1706 92° East 504 580 39,000  Level Kansas City Center
04:08PM 40.1461 -92.9667 92° East 498 573 39,000  Level Kansas City Center
04:09PM 40.1400 -92.7911 93° East 502 578 39,000  Level Kansas City Center
04:10PM 40.1319 -92.5872 93° East 502 578 39,000  Level Kansas City Center
04:11PM 40.1219 -92.4161 94° East 497 572 39,000  Level Kansas City Center
04:12PM 40.1044 -92.2450 98° East 504 580 39,000  Level Kansas City Center
04:13PM 40.0847 -92.0322 97° East 500 575 39,000  Level Kansas City Center
04:14PM 40.0672 -91.8547 97° East 499 574 39,000  Level Kansas City Center
04:15PM 40.0506 -91.6778 97° East 497 572 39,000  Level Kansas City Center
04:16PM 40.0331 -91.4981 97° East 501 577 39,000  Level Kansas City Center
04:17PM 40.0147 -91.3194 98° East 502 578 39,000  Level Kansas City Center
04:18PM 39.9931 -91.1042 97° East 502 578 39,000  Level Kansas City Center
04:19PM 39.9769 -90.9364 97° East 506 582 39,000  Level Kansas City Center
04:20PM 39.9581 -90.7556 98° East 506 582 39,000  Level Kansas City Center
04:21PM 39.9347 -90.5381 98° East 507 583 39,000  Level Kansas City Center
04:22PM 39.9156 -90.3564 98° East 508 585 39,000  Level Kansas City Center
04:24PM 39.8956 -90.1736 98° East 511 588 39,000  Level Kansas City Center
04:25PM 39.8753 -89.9928 98° East 510 587 39,000  Level Kansas City Center
04:26PM 39.8547 -89.8094 98° East 512 589 39,000  Level Kansas City Center
04:27PM 39.8400 -89.6253 96° East 516 594 39,000  Level Kansas City Center
04:28PM 39.8400 -89.4022 90° East 516 594 39,000  Level Kansas City Center
04:29PM 39.8406 -89.2147 90° East 518 596 39,000  Level Kansas City Center
04:30PM 39.8414 -89.0267 90° East 520 598 39,000  Level Kansas City Center
04:31PM 39.8417 -88.8383 90° East 522 601 39,000  Level Kansas City Center
04:32PM 39.8417 -88.6483 90° East 524 603 39,000  Level Kansas City Center
04:33PM 39.8422 -88.4217 90° East 524 603 39,000  Level Kansas City Center
04:34PM 39.8425 -88.2317 90° East 525 604 39,000  Level Kansas City Center
04:35PM 39.8264 -88.0386 96° East 524 603 39,000  Level Kansas City Center
04:35PM 39.8139 -87.9742 104° East 522 601 39,000  Level Indianapolis Center
04:36PM 39.7856 -87.7881 101° East 521 600 39,000  Level Indianapolis Center
04:37PM 39.7589 -87.6011 100° East 523 602 39,000  Level Indianapolis Center
04:38PM 39.7425 -87.3825 95° East 522 601 39,000  Level Indianapolis Center
04:39PM 39.7578 -87.1931 84° East 523 602 39,000  Level Indianapolis Center
04:40PM 39.7703 -87.0042 85° East 523 602 39,000  Level Indianapolis Center
04:41PM 39.7819 -86.8144 85° East 523 602 39,000  Level Indianapolis Center
04:42PM 39.7939 -86.6247 85° East 523 602 39,000  Level Indianapolis Center
04:44PM 39.8056 -86.4325 85° East 525 604 39,000  Level Indianapolis Center
04:45PM 39.8169 -86.2331 86° East 526 605 39,000  Level Indianapolis Center
04:46PM 39.8297 -86.0397 85° East 527 606 39,000  Level Indianapolis Center
04:47PM 39.8400 -85.8478 86° East 528 608 39,000  Level Indianapolis Center
04:48PM 39.8522 -85.6244 86° East 527 606 39,000  Level Indianapolis Center
04:49PM 39.8633 -85.4322 86° East 528 608 39,000  Level Indianapolis Center
04:50PM 39.8733 -85.2406 86° East 529 609 39,000  Level Indianapolis Center
04:51PM 39.8825 -85.0489 86° East 529 609 39,000  Level Indianapolis Center
04:52PM 39.8936 -84.8439 86° East 529 609 39,000  Level Indianapolis Center
04:53PM 39.9017 -84.6517 87° East 527 606 39,000  Level Indianapolis Center
04:54PM 39.9108 -84.4597 86° East 526 605 39,000  Level Indianapolis Center
04:55PM 39.9192 -84.2694 87° East 522 601 39,000  Level Indianapolis Center
04:56PM 39.9275 -84.0786 87° East 523 602 39,000  Level Indianapolis Center
04:57PM 39.9342 -83.8886 87° East 520 598 39,000  Level Indianapolis Center
04:58PM 39.9417 -83.7008 87° East 520 598 39,000  Level Indianapolis Center
04:59PM 39.9506 -83.4742 87° East 520 598 39,000  Level Indianapolis Center
05:00PM 39.9567 -83.3086 87° East 521 600 39,000  Level Indianapolis Center
05:01PM 39.9636 -83.0850 88° East 522 601 39,000  Level Indianapolis Center
05:02PM 39.9700 -82.9061 87° East 523 602 39,000  Level Indianapolis Center
05:03PM 39.9756 -82.7169 88° East 523 602 39,000  Level Indianapolis Center
05:04PM 39.9817 -82.5158 88° East 520 598 39,000  Level Indianapolis Center
05:05PM 39.9861 -82.3247 88° East 517 595 39,000  Level Indianapolis Center
05:06PM 39.9911 -82.1381 88° East 512 589 39,000  Level Indianapolis Center
05:07PM 39.9950 -81.9497 88° East 514 592 39,000  Level Indianapolis Center
05:08PM 40.0003 -81.7347 88° East 516 594 39,000  Level Indianapolis Center
05:09PM 40.0042 -81.5483 88° East 512 589 39,000  Level Indianapolis Center
05:10PM 39.9978 -81.3597 92° East 519 597 39,000  Level Indianapolis Center
05:11PM 39.9561 -81.1861 107° East 526 605 39,000  Level Indianapolis Center
05:12PM 39.9408 -81.1083 104° East 516 594 39,000 -180 Level Cleveland Center
05:13PM 39.8936 -80.9322 109° East 510 587 38,800 -720 Descending Cleveland Center
05:14PM 39.8378 -80.7317 110° East 528 608 37,600 -1,500 Descending Cleveland Center
05:15PM 39.7900 -80.5481 109° East 528 608 35,800 -1,380 Descending Cleveland Center
05:16PM 39.7397 -80.3644 110° East 528 608 34,900 -960 Descending Cleveland Center
05:17PM 39.6911 -80.1783 109° East 534 615 33,900 -1,140 Descending Cleveland Center
05:18PM 39.6250 -79.9347 109° East 522 601 32,100 -1,500 Descending Washington Center
05:19PM 39.5747 -79.7619 111° Southeast 516 594 30,100 -2,040 Descending Washington Center
05:20PM 39.5325 -79.5981 108° East 501 577 28,100 -1,620 Descending Washington Center
05:21PM 39.4878 -79.4397 110° East 486 559 26,900 -1,620 Descending Washington Center
05:22PM 39.4550 -79.2847 105° East 460 529 24,900 -1,980 Descending Washington Center
05:23PM 39.4247 -79.1139 103° East 454 522 23,100 -2,520 Descending Washington Center
05:24PM 39.3956 -78.9619 104° East 436 502 19,900 -2,220 Descending Washington Center
05:25PM 39.3686 -78.8131 103° East 436 502 18,700 -1,380 Descending Washington Center
05:26PM 39.3450 -78.6806 103° East 418 481 17,200 -2,040 Descending Washington Center
05:27PM 39.3192 -78.5428 104° East 397 457 14,700 -2,280 Descending Washington Center
05:28PM 39.2953 -78.4103 103° East 387 445 12,700 -1,860 Descending Washington Center
05:29PM 39.2500 -78.2958 117° Southeast 369 425 11,100 -1,440 Descending Washington Center
05:30PM 39.1764 -78.2264 144° Southeast 331 381 9,900 -1,260 Descending Washington Center
05:31PM 39.1069 -78.1650 146° Southeast 318 366 8,600 -960 Descending Washington Center
05:32PM 39.0392 -78.1092 147° Southeast 306 352 8,000 -540 Descending Washington Center
05:33PM 39.0033 -78.0250 119° Southeast 266 306 7,600 -960 Descending Washington Center
05:34PM 38.9889 -77.9203 100° East 266 306 6,200 -840 Descending Washington Center
05:35PM 38.9781 -77.8347 99° East 271 312 6,000 -120 Descending Washington Center
05:36PM 38.9611 -77.7300 102° East 276 318 6,000  Level Washington Center
05:38PM 38.9333 -77.6167 107° East 274 315 6,000 -360 Level Potomac TRACON
05:39PM 38.8500 -77.5833 163° South 267 307 5,300 -1,020 Descending Potomac TRACON
05:40PM 38.8000 -77.5333 142° Southeast 265 305 4,000 -780 Descending Potomac TRACON
05:41PM 38.8333 -77.4667 57° Northeast 205 236 3,800 -960 Descending Potomac TRACON
05:42PM 38.8667 -77.4667 360° North 158 182 2,100 -1,500 Descending Potomac TRACON
05:43PM 38.9167 -77.4667 360° North 137 158 900 -1,200 Descending Potomac TRACON
05:45PM 38.9333 -77.4500 165° South  Level FlightAware Approximate
05:52PM 38.9474 -77.4599 165° South  Level Estimated
05:53PM 38.9474 -77.4599 165° South  Level Estimated
05:54PM 38.9474 -77.4599 165° South  Level Estimated